sensor_id;sensor_type;location;lat;lon;timestamp;temperature;humidity
360;DHT22;168;48.872;9.226;2023-02-08T00:02:02;-0.90;91.70
360;DHT22;168;48.872;9.226;2023-02-08T00:04:30;-0.90;92.00
360;DHT22;168;48.872;9.226;2023-02-08T00:06:57;-0.90;92.30
360;DHT22;168;48.872;9.226;2023-02-08T00:09:25;-0.90;91.80
360;DHT22;168;48.872;9.226;2023-02-08T00:11:52;-1.00;92.20
360;DHT22;168;48.872;9.226;2023-02-08T00:14:19;-1.00;92.70
360;DHT22;168;48.872;9.226;2023-02-08T00:16:47;-1.10;93.10
360;DHT22;168;48.872;9.226;2023-02-08T00:19:15;-1.10;93.00
360;DHT22;168;48.872;9.226;2023-02-08T00:21:46;-1.10;93.00
360;DHT22;168;48.872;9.226;2023-02-08T00:24:13;-1.10;92.90
360;DHT22;168;48.872;9.226;2023-02-08T00:26:40;-1.10;93.00
360;DHT22;168;48.872;9.226;2023-02-08T00:29:08;-1.10;93.10
360;DHT22;168;48.872;9.226;2023-02-08T00:31:35;-1.10;93.20
360;DHT22;168;48.872;9.226;2023-02-08T00:34:03;-1.10;92.70
360;DHT22;168;48.872;9.226;2023-02-08T00:36:31;-1.10;92.80
360;DHT22;168;48.872;9.226;2023-02-08T00:38:59;-1.10;92.90
360;DHT22;168;48.872;9.226;2023-02-08T00:41:26;-1.00;92.40
360;DHT22;168;48.872;9.226;2023-02-08T00:43:53;-0.90;91.30
360;DHT22;168;48.872;9.226;2023-02-08T00:46:21;-0.80;91.10
360;DHT22;168;48.872;9.226;2023-02-08T00:48:49;-0.80;91.30
360;DHT22;168;48.872;9.226;2023-02-08T00:51:16;-0.80;91.40
360;DHT22;168;48.872;9.226;2023-02-08T00:53:45;-1.00;91.40
360;DHT22;168;48.872;9.226;2023-02-08T00:56:13;-1.10;91.60
360;DHT22;168;48.872;9.226;2023-02-08T00:58:41;-1.10;91.50
360;DHT22;168;48.872;9.226;2023-02-08T01:01:10;-1.20;91.70
360;DHT22;168;48.872;9.226;2023-02-08T01:03:39;-1.20;91.80
360;DHT22;168;48.872;9.226;2023-02-08T01:06:10;-1.20;91.70
360;DHT22;168;48.872;9.226;2023-02-08T01:08:38;-1.30;91.60
360;DHT22;168;48.872;9.226;2023-02-08T01:11:08;-1.30;91.60
360;DHT22;168;48.872;9.226;2023-02-08T01:13:36;-1.30;91.30
360;DHT22;168;48.872;9.226;2023-02-08T01:16:09;-1.40;91.20
360;DHT22;168;48.872;9.226;2023-02-08T01:18:36;-1.40;91.00
360;DHT22;168;48.872;9.226;2023-02-08T01:21:06;-1.40;90.40
360;DHT22;168;48.872;9.226;2023-02-08T01:23:34;-1.40;90.30
360;DHT22;168;48.872;9.226;2023-02-08T01:26:02;-1.40;90.10
360;DHT22;168;48.872;9.226;2023-02-08T01:28:31;-1.40;90.00
360;DHT22;168;48.872;9.226;2023-02-08T01:30:59;-1.40;89.80
360;DHT22;168;48.872;9.226;2023-02-08T01:33:27;-1.40;89.80
360;DHT22;168;48.872;9.226;2023-02-08T01:35:57;-1.40;89.20
360;DHT22;168;48.872;9.226;2023-02-08T01:38:24;-1.40;89.60
360;DHT22;168;48.872;9.226;2023-02-08T01:40:51;-1.40;88.80
360;DHT22;168;48.872;9.226;2023-02-08T01:43:22;-1.40;88.10
360;DHT22;168;48.872;9.226;2023-02-08T01:45:51;-1.40;87.80
360;DHT22;168;48.872;9.226;2023-02-08T01:48:22;-1.40;87.80
360;DHT22;168;48.872;9.226;2023-02-08T01:50:52;-1.40;87.50
360;DHT22;168;48.872;9.226;2023-02-08T01:53:22;-1.40;86.30
360;DHT22;168;48.872;9.226;2023-02-08T01:55:54;-1.50;86.20
360;DHT22;168;48.872;9.226;2023-02-08T01:58:23;-1.60;86.30
360;DHT22;168;48.872;9.226;2023-02-08T02:00:53;-1.60;86.30
360;DHT22;168;48.872;9.226;2023-02-08T02:03:22;-1.60;87.20
360;DHT22;168;48.872;9.226;2023-02-08T02:05:54;-1.70;87.70
360;DHT22;168;48.872;9.226;2023-02-08T02:08:23;-1.70;88.30
360;DHT22;168;48.872;9.226;2023-02-08T02:10:51;-1.70;88.80
360;DHT22;168;48.872;9.226;2023-02-08T02:13:22;-1.70;88.90
360;DHT22;168;48.872;9.226;2023-02-08T02:15:53;-1.60;88.60
360;DHT22;168;48.872;9.226;2023-02-08T02:18:22;-1.70;88.60
360;DHT22;168;48.872;9.226;2023-02-08T02:21:05;-1.70;89.40
360;DHT22;168;48.872;9.226;2023-02-08T02:24:02;-1.70;90.40
360;DHT22;168;48.872;9.226;2023-02-08T02:26:52;-1.70;90.50
360;DHT22;168;48.872;9.226;2023-02-08T02:29:55;-1.70;89.70
360;DHT22;168;48.872;9.226;2023-02-08T02:33:00;-1.70;89.50
360;DHT22;168;48.872;9.226;2023-02-08T02:35:35;-1.60;89.40
360;DHT22;168;48.872;9.226;2023-02-08T02:38:10;-1.70;89.80
360;DHT22;168;48.872;9.226;2023-02-08T02:40:47;-1.70;90.40
360;DHT22;168;48.872;9.226;2023-02-08T02:43:21;-1.80;90.80
360;DHT22;168;48.872;9.226;2023-02-08T02:46:20;-1.90;91.20
360;DHT22;168;48.872;9.226;2023-02-08T02:48:53;-1.80;91.90
360;DHT22;168;48.872;9.226;2023-02-08T02:51:26;-1.80;91.70
360;DHT22;168;48.872;9.226;2023-02-08T02:53:58;-1.90;91.90
360;DHT22;168;48.872;9.226;2023-02-08T02:56:29;-1.90;92.10
360;DHT22;168;48.872;9.226;2023-02-08T02:59:02;-1.90;92.40
360;DHT22;168;48.872;9.226;2023-02-08T03:01:31;-1.90;92.30
360;DHT22;168;48.872;9.226;2023-02-08T03:04:10;-1.90;93.00
360;DHT22;168;48.872;9.226;2023-02-08T03:06:50;-1.90;92.90
360;DHT22;168;48.872;9.226;2023-02-08T03:09:35;-1.90;92.50
360;DHT22;168;48.872;9.226;2023-02-08T03:12:16;-2.00;92.20
360;DHT22;168;48.872;9.226;2023-02-08T03:14:54;-2.00;92.10
360;DHT22;168;48.872;9.226;2023-02-08T03:17:34;-2.00;92.10
360;DHT22;168;48.872;9.226;2023-02-08T03:20:09;-2.00;92.10
360;DHT22;168;48.872;9.226;2023-02-08T03:22:45;-2.00;91.70
360;DHT22;168;48.872;9.226;2023-02-08T03:25:17;-2.00;92.00
360;DHT22;168;48.872;9.226;2023-02-08T03:27:51;-2.00;91.80
360;DHT22;168;48.872;9.226;2023-02-08T03:30:29;-2.00;91.20
360;DHT22;168;48.872;9.226;2023-02-08T03:33:00;-2.10;91.40
360;DHT22;168;48.872;9.226;2023-02-08T03:35:33;-2.10;91.80
360;DHT22;168;48.872;9.226;2023-02-08T03:38:04;-2.20;92.30
360;DHT22;168;48.872;9.226;2023-02-08T03:40:36;-2.20;92.50
360;DHT22;168;48.872;9.226;2023-02-08T03:43:08;-2.20;92.70
360;DHT22;168;48.872;9.226;2023-02-08T03:45:39;-2.10;92.50
360;DHT22;168;48.872;9.226;2023-02-08T03:48:10;-2.10;91.60
360;DHT22;168;48.872;9.226;2023-02-08T03:50:43;-2.10;91.80
360;DHT22;168;48.872;9.226;2023-02-08T03:53:14;-2.10;91.60
360;DHT22;168;48.872;9.226;2023-02-08T03:55:45;-2.00;91.50
360;DHT22;168;48.872;9.226;2023-02-08T03:58:18;-1.90;90.70
360;DHT22;168;48.872;9.226;2023-02-08T04:00:53;-1.90;90.80
360;DHT22;168;48.872;9.226;2023-02-08T04:03:24;-2.00;91.10
360;DHT22;168;48.872;9.226;2023-02-08T04:05:53;-2.00;91.10
360;DHT22;168;48.872;9.226;2023-02-08T04:08:21;-2.00;91.00
360;DHT22;168;48.872;9.226;2023-02-08T04:10:48;-2.00;91.10
360;DHT22;168;48.872;9.226;2023-02-08T04:13:15;-2.10;91.00
360;DHT22;168;48.872;9.226;2023-02-08T04:15:43;-2.10;91.30
360;DHT22;168;48.872;9.226;2023-02-08T04:18:10;-2.20;91.90
360;DHT22;168;48.872;9.226;2023-02-08T04:20:38;-2.20;92.00
360;DHT22;168;48.872;9.226;2023-02-08T04:23:06;-2.10;91.50
360;DHT22;168;48.872;9.226;2023-02-08T04:25:34;-2.10;91.30
360;DHT22;168;48.872;9.226;2023-02-08T04:28:01;-2.10;91.70
360;DHT22;168;48.872;9.226;2023-02-08T04:30:28;-2.20;91.30
360;DHT22;168;48.872;9.226;2023-02-08T04:32:56;-2.30;91.90
360;DHT22;168;48.872;9.226;2023-02-08T04:35:25;-2.20;91.80
360;DHT22;168;48.872;9.226;2023-02-08T04:37:52;-2.30;91.70
360;DHT22;168;48.872;9.226;2023-02-08T04:40:21;-2.40;91.90
360;DHT22;168;48.872;9.226;2023-02-08T04:42:48;-2.50;92.70
360;DHT22;168;48.872;9.226;2023-02-08T04:45:16;-2.60;94.10
360;DHT22;168;48.872;9.226;2023-02-08T04:47:43;-2.60;94.40
360;DHT22;168;48.872;9.226;2023-02-08T04:50:11;-2.60;94.40
360;DHT22;168;48.872;9.226;2023-02-08T04:52:38;-2.60;94.30
360;DHT22;168;48.872;9.226;2023-02-08T04:55:06;-2.50;93.60
360;DHT22;168;48.872;9.226;2023-02-08T04:57:35;-2.50;93.90
360;DHT22;168;48.872;9.226;2023-02-08T05:00:03;-2.50;93.50
360;DHT22;168;48.872;9.226;2023-02-08T05:02:31;-2.50;92.90
360;DHT22;168;48.872;9.226;2023-02-08T05:04:58;-2.20;92.00
360;DHT22;168;48.872;9.226;2023-02-08T05:07:26;-2.10;90.60
360;DHT22;168;48.872;9.226;2023-02-08T05:09:53;-2.00;89.70
360;DHT22;168;48.872;9.226;2023-02-08T05:12:20;-2.10;89.70
360;DHT22;168;48.872;9.226;2023-02-08T05:14:49;-2.20;89.90
360;DHT22;168;48.872;9.226;2023-02-08T05:17:16;-2.10;89.70
360;DHT22;168;48.872;9.226;2023-02-08T05:19:44;-2.20;89.50
360;DHT22;168;48.872;9.226;2023-02-08T05:22:11;-2.20;89.60
360;DHT22;168;48.872;9.226;2023-02-08T05:24:38;-2.30;90.00
360;DHT22;168;48.872;9.226;2023-02-08T05:27:06;-2.30;89.90
360;DHT22;168;48.872;9.226;2023-02-08T05:29:33;-2.30;89.80
360;DHT22;168;48.872;9.226;2023-02-08T05:32:02;-2.40;90.00
360;DHT22;168;48.872;9.226;2023-02-08T05:34:29;-2.50;90.20
360;DHT22;168;48.872;9.226;2023-02-08T05:36:56;-2.50;90.80
360;DHT22;168;48.872;9.226;2023-02-08T05:39:24;-2.50;91.10
360;DHT22;168;48.872;9.226;2023-02-08T05:41:51;-2.50;91.40
360;DHT22;168;48.872;9.226;2023-02-08T05:44:18;-2.50;91.80
360;DHT22;168;48.872;9.226;2023-02-08T05:46:46;-2.50;91.90
360;DHT22;168;48.872;9.226;2023-02-08T05:49:15;-2.50;92.10
360;DHT22;168;48.872;9.226;2023-02-08T05:51:42;-2.50;92.10
360;DHT22;168;48.872;9.226;2023-02-08T05:54:09;-2.50;92.20
360;DHT22;168;48.872;9.226;2023-02-08T05:56:37;-2.60;92.50
360;DHT22;168;48.872;9.226;2023-02-08T05:59:04;-2.60;92.80
360;DHT22;168;48.872;9.226;2023-02-08T06:01:32;-2.60;92.50
360;DHT22;168;48.872;9.226;2023-02-08T06:03:59;-2.50;91.60
360;DHT22;168;48.872;9.226;2023-02-08T06:06:28;-2.50;90.80
360;DHT22;168;48.872;9.226;2023-02-08T06:08:55;-2.60;90.90
360;DHT22;168;48.872;9.226;2023-02-08T06:11:23;-2.50;90.80
360;DHT22;168;48.872;9.226;2023-02-08T06:13:50;-2.40;90.20
360;DHT22;168;48.872;9.226;2023-02-08T06:16:17;-2.30;89.80
360;DHT22;168;48.872;9.226;2023-02-08T06:18:45;-2.30;89.80
360;DHT22;168;48.872;9.226;2023-02-08T06:21:12;-2.10;89.50
360;DHT22;168;48.872;9.226;2023-02-08T06:23:41;-2.00;88.50
360;DHT22;168;48.872;9.226;2023-02-08T06:26:08;-2.10;88.20
360;DHT22;168;48.872;9.226;2023-02-08T06:28:35;-2.10;88.00
360;DHT22;168;48.872;9.226;2023-02-08T06:31:03;-2.10;87.90
360;DHT22;168;48.872;9.226;2023-02-08T06:33:30;-2.10;88.20
360;DHT22;168;48.872;9.226;2023-02-08T06:35:57;-2.20;88.20
360;DHT22;168;48.872;9.226;2023-02-08T06:38:25;-2.30;88.30
360;DHT22;168;48.872;9.226;2023-02-08T06:40:53;-2.30;88.30
360;DHT22;168;48.872;9.226;2023-02-08T06:43:21;-2.30;88.20
360;DHT22;168;48.872;9.226;2023-02-08T06:45:48;-2.40;88.90
360;DHT22;168;48.872;9.226;2023-02-08T06:48:15;-2.40;88.80
360;DHT22;168;48.872;9.226;2023-02-08T06:50:43;-2.40;88.60
360;DHT22;168;48.872;9.226;2023-02-08T06:53:10;-2.40;88.60
360;DHT22;168;48.872;9.226;2023-02-08T06:55:37;-2.40;88.30
360;DHT22;168;48.872;9.226;2023-02-08T06:58:06;-2.40;88.70
360;DHT22;168;48.872;9.226;2023-02-08T07:00:34;-2.40;88.40
360;DHT22;168;48.872;9.226;2023-02-08T07:03:04;-2.40;88.40
360;DHT22;168;48.872;9.226;2023-02-08T07:05:33;-2.30;88.20
360;DHT22;168;48.872;9.226;2023-02-08T07:08:01;-2.30;88.30
360;DHT22;168;48.872;9.226;2023-02-08T07:10:28;-2.30;88.00
360;DHT22;168;48.872;9.226;2023-02-08T07:12:55;-2.30;88.10
360;DHT22;168;48.872;9.226;2023-02-08T07:15:26;-2.30;88.40
360;DHT22;168;48.872;9.226;2023-02-08T07:17:55;-2.30;88.70
360;DHT22;168;48.872;9.226;2023-02-08T07:20:23;-2.30;88.80
360;DHT22;168;48.872;9.226;2023-02-08T07:22:51;-2.30;88.80
360;DHT22;168;48.872;9.226;2023-02-08T07:25:18;-2.30;89.20
360;DHT22;168;48.872;9.226;2023-02-08T07:27:46;-2.20;88.70
360;DHT22;168;48.872;9.226;2023-02-08T07:30:13;-2.10;89.00
360;DHT22;168;48.872;9.226;2023-02-08T07:32:42;-2.10;88.90
360;DHT22;168;48.872;9.226;2023-02-08T07:35:10;-2.00;88.60
360;DHT22;168;48.872;9.226;2023-02-08T07:37:37;-2.00;88.40
360;DHT22;168;48.872;9.226;2023-02-08T07:40:05;-2.00;88.80
360;DHT22;168;48.872;9.226;2023-02-08T07:42:32;-1.90;88.50
360;DHT22;168;48.872;9.226;2023-02-08T07:45:00;-1.60;88.30
360;DHT22;168;48.872;9.226;2023-02-08T07:47:29;-1.30;86.70
360;DHT22;168;48.872;9.226;2023-02-08T07:49:58;-1.20;85.60
360;DHT22;168;48.872;9.226;2023-02-08T07:52:25;-1.20;85.10
360;DHT22;168;48.872;9.226;2023-02-08T07:54:52;-1.10;84.70
360;DHT22;168;48.872;9.226;2023-02-08T07:57:20;-1.10;84.50
360;DHT22;168;48.872;9.226;2023-02-08T07:59:47;-1.00;84.10
360;DHT22;168;48.872;9.226;2023-02-08T08:02:14;-0.90;83.60
360;DHT22;168;48.872;9.226;2023-02-08T08:04:42;-0.90;83.60
360;DHT22;168;48.872;9.226;2023-02-08T08:07:11;-0.90;83.90
360;DHT22;168;48.872;9.226;2023-02-08T08:09:38;-0.80;83.50
360;DHT22;168;48.872;9.226;2023-02-08T08:12:06;-0.70;82.70
360;DHT22;168;48.872;9.226;2023-02-08T08:14:33;-0.60;82.50
360;DHT22;168;48.872;9.226;2023-02-08T08:17:00;-0.60;82.20
360;DHT22;168;48.872;9.226;2023-02-08T08:19:28;-0.50;81.90
360;DHT22;168;48.872;9.226;2023-02-08T08:21:55;-0.40;81.70
360;DHT22;168;48.872;9.226;2023-02-08T08:24:24;-0.40;81.10
360;DHT22;168;48.872;9.226;2023-02-08T08:26:51;-0.30;80.70
360;DHT22;168;48.872;9.226;2023-02-08T08:29:19;-0.30;80.80
360;DHT22;168;48.872;9.226;2023-02-08T08:31:46;-0.20;80.50
360;DHT22;168;48.872;9.226;2023-02-08T08:34:14;-0.10;81.10
360;DHT22;168;48.872;9.226;2023-02-08T08:36:41;0.00;80.60
360;DHT22;168;48.872;9.226;2023-02-08T08:39:08;0.10;79.90
360;DHT22;168;48.872;9.226;2023-02-08T08:41:37;0.20;79.40
360;DHT22;168;48.872;9.226;2023-02-08T08:44:04;0.30;78.90
360;DHT22;168;48.872;9.226;2023-02-08T08:46:32;0.40;78.20
360;DHT22;168;48.872;9.226;2023-02-08T08:48:59;0.50;77.20
360;DHT22;168;48.872;9.226;2023-02-08T08:51:27;0.60;76.00
360;DHT22;168;48.872;9.226;2023-02-08T08:53:56;0.60;74.20
360;DHT22;168;48.872;9.226;2023-02-08T08:56:28;0.60;73.90
360;DHT22;168;48.872;9.226;2023-02-08T08:59:14;0.70;74.70
360;DHT22;168;48.872;9.226;2023-02-08T09:01:41;0.70;74.60
360;DHT22;168;48.872;9.226;2023-02-08T09:04:09;0.80;73.90
360;DHT22;168;48.872;9.226;2023-02-08T09:06:37;0.90;73.60
360;DHT22;168;48.872;9.226;2023-02-08T09:09:05;0.90;72.80
360;DHT22;168;48.872;9.226;2023-02-08T09:11:32;0.90;73.50
360;DHT22;168;48.872;9.226;2023-02-08T09:14:01;1.00;73.30
360;DHT22;168;48.872;9.226;2023-02-08T09:16:30;1.10;72.90
360;DHT22;168;48.872;9.226;2023-02-08T09:18:59;1.10;72.30
360;DHT22;168;48.872;9.226;2023-02-08T09:21:27;1.20;72.90
360;DHT22;168;48.872;9.226;2023-02-08T09:23:54;1.40;72.30
360;DHT22;168;48.872;9.226;2023-02-08T09:26:22;1.50;70.30
360;DHT22;168;48.872;9.226;2023-02-08T09:28:51;1.60;69.30
360;DHT22;168;48.872;9.226;2023-02-08T09:31:21;1.70;68.80
360;DHT22;168;48.872;9.226;2023-02-08T09:33:51;1.70;69.90
360;DHT22;168;48.872;9.226;2023-02-08T09:36:20;1.80;70.50
360;DHT22;168;48.872;9.226;2023-02-08T09:38:48;1.90;70.00
360;DHT22;168;48.872;9.226;2023-02-08T09:41:23;2.10;68.50
360;DHT22;168;48.872;9.226;2023-02-08T09:44:08;2.30;67.80
360;DHT22;168;48.872;9.226;2023-02-08T09:46:40;2.30;67.40
360;DHT22;168;48.872;9.226;2023-02-08T09:49:14;2.40;67.30
360;DHT22;168;48.872;9.226;2023-02-08T09:51:46;2.30;68.50
360;DHT22;168;48.872;9.226;2023-02-08T09:54:19;2.30;70.20
360;DHT22;168;48.872;9.226;2023-02-08T09:56:48;2.40;69.40
360;DHT22;168;48.872;9.226;2023-02-08T09:59:25;2.60;68.20
360;DHT22;168;48.872;9.226;2023-02-08T10:01:57;2.70;68.10
360;DHT22;168;48.872;9.226;2023-02-08T10:04:33;2.80;67.40
360;DHT22;168;48.872;9.226;2023-02-08T10:07:03;2.90;67.20
360;DHT22;168;48.872;9.226;2023-02-08T10:09:31;2.90;66.50
360;DHT22;168;48.872;9.226;2023-02-08T10:12:08;3.00;67.30
360;DHT22;168;48.872;9.226;2023-02-08T10:14:46;3.10;66.40
360;DHT22;168;48.872;9.226;2023-02-08T10:18:06;3.10;66.90
360;DHT22;168;48.872;9.226;2023-02-08T10:20:53;3.10;66.50
360;DHT22;168;48.872;9.226;2023-02-08T10:23:34;3.20;65.90
360;DHT22;168;48.872;9.226;2023-02-08T10:26:12;3.30;65.80
360;DHT22;168;48.872;9.226;2023-02-08T10:29:02;3.20;66.10
360;DHT22;168;48.872;9.226;2023-02-08T10:34:37;3.50;65.20
360;DHT22;168;48.872;9.226;2023-02-08T10:37:14;3.70;64.90
360;DHT22;168;48.872;9.226;2023-02-08T10:39:42;3.80;64.50
360;DHT22;168;48.872;9.226;2023-02-08T10:42:14;3.90;63.70
360;DHT22;168;48.872;9.226;2023-02-08T10:44:59;3.90;63.20
360;DHT22;168;48.872;9.226;2023-02-08T10:47:42;3.90;63.70
360;DHT22;168;48.872;9.226;2023-02-08T10:50:17;4.00;63.80
360;DHT22;168;48.872;9.226;2023-02-08T10:52:47;3.90;63.50
360;DHT22;168;48.872;9.226;2023-02-08T10:55:16;4.00;64.30
360;DHT22;168;48.872;9.226;2023-02-08T10:57:45;4.00;64.70
360;DHT22;168;48.872;9.226;2023-02-08T11:00:17;4.10;64.00
360;DHT22;168;48.872;9.226;2023-02-08T11:02:45;4.20;63.70
360;DHT22;168;48.872;9.226;2023-02-08T11:05:17;4.20;63.40
360;DHT22;168;48.872;9.226;2023-02-08T11:07:47;4.30;64.10
360;DHT22;168;48.872;9.226;2023-02-08T11:10:22;4.40;64.20
360;DHT22;168;48.872;9.226;2023-02-08T11:12:54;4.60;63.80
360;DHT22;168;48.872;9.226;2023-02-08T11:15:24;4.70;62.90
360;DHT22;168;48.872;9.226;2023-02-08T11:17:56;4.80;61.50
360;DHT22;168;48.872;9.226;2023-02-08T11:20:30;5.00;62.20
360;DHT22;168;48.872;9.226;2023-02-08T11:23:00;5.10;62.10
360;DHT22;168;48.872;9.226;2023-02-08T11:25:33;5.20;60.20
360;DHT22;168;48.872;9.226;2023-02-08T11:28:01;5.20;60.60
360;DHT22;168;48.872;9.226;2023-02-08T11:30:29;5.20;60.50
360;DHT22;168;48.872;9.226;2023-02-08T11:33:16;5.30;60.20
360;DHT22;168;48.872;9.226;2023-02-08T11:35:56;5.40;60.40
360;DHT22;168;48.872;9.226;2023-02-08T11:38:26;5.40;60.40
360;DHT22;168;48.872;9.226;2023-02-08T11:40:56;5.50;60.30
360;DHT22;168;48.872;9.226;2023-02-08T11:43:25;5.60;59.60
360;DHT22;168;48.872;9.226;2023-02-08T11:45:55;5.80;59.20
360;DHT22;168;48.872;9.226;2023-02-08T11:48:27;5.80;58.80
360;DHT22;168;48.872;9.226;2023-02-08T11:51:00;5.90;57.90
360;DHT22;168;48.872;9.226;2023-02-08T11:53:32;5.90;58.30
360;DHT22;168;48.872;9.226;2023-02-08T11:56:13;6.00;59.20
360;DHT22;168;48.872;9.226;2023-02-08T11:58:41;6.20;58.30
360;DHT22;168;48.872;9.226;2023-02-08T12:01:17;6.20;57.60
360;DHT22;168;48.872;9.226;2023-02-08T12:03:46;6.20;58.30
360;DHT22;168;48.872;9.226;2023-02-08T12:09:22;6.40;57.30
360;DHT22;168;48.872;9.226;2023-02-08T12:11:55;6.60;57.90
360;DHT22;168;48.872;9.226;2023-02-08T12:14:43;6.60;56.60
360;DHT22;168;48.872;9.226;2023-02-08T12:17:29;6.60;56.60
360;DHT22;168;48.872;9.226;2023-02-08T12:23:46;6.50;56.90
360;DHT22;168;48.872;9.226;2023-02-08T12:26:22;6.60;57.00
360;DHT22;168;48.872;9.226;2023-02-08T12:29:09;6.60;56.70
360;DHT22;168;48.872;9.226;2023-02-08T12:31:53;6.60;57.00
360;DHT22;168;48.872;9.226;2023-02-08T12:34:31;6.60;56.00
360;DHT22;168;48.872;9.226;2023-02-08T12:37:21;6.50;56.60
360;DHT22;168;48.872;9.226;2023-02-08T12:40:26;6.50;56.00
360;DHT22;168;48.872;9.226;2023-02-08T12:43:26;6.50;56.40
360;DHT22;168;48.872;9.226;2023-02-08T12:46:08;6.50;57.30
360;DHT22;168;48.872;9.226;2023-02-08T12:51:36;6.60;56.50
360;DHT22;168;48.872;9.226;2023-02-08T12:54:08;6.60;56.80
360;DHT22;168;48.872;9.226;2023-02-08T12:56:40;6.60;57.70
360;DHT22;168;48.872;9.226;2023-02-08T12:59:20;6.70;56.90
360;DHT22;168;48.872;9.226;2023-02-08T13:01:50;6.70;57.80
360;DHT22;168;48.872;9.226;2023-02-08T13:04:26;6.70;57.90
360;DHT22;168;48.872;9.226;2023-02-08T13:06:58;6.70;57.20
360;DHT22;168;48.872;9.226;2023-02-08T13:09:37;6.80;57.20
360;DHT22;168;48.872;9.226;2023-02-08T13:12:12;6.80;56.90
360;DHT22;168;48.872;9.226;2023-02-08T13:14:45;6.80;57.00
360;DHT22;168;48.872;9.226;2023-02-08T13:17:18;6.80;56.00
360;DHT22;168;48.872;9.226;2023-02-08T13:19:56;6.70;56.80
360;DHT22;168;48.872;9.226;2023-02-08T13:22:26;6.70;57.50
360;DHT22;168;48.872;9.226;2023-02-08T13:24:55;6.70;58.10
360;DHT22;168;48.872;9.226;2023-02-08T13:27:23;6.70;57.20
360;DHT22;168;48.872;9.226;2023-02-08T13:29:52;6.70;57.00
360;DHT22;168;48.872;9.226;2023-02-08T13:32:23;6.70;57.00
360;DHT22;168;48.872;9.226;2023-02-08T13:34:58;6.70;58.00
360;DHT22;168;48.872;9.226;2023-02-08T13:37:29;6.70;57.90
360;DHT22;168;48.872;9.226;2023-02-08T13:40:00;6.70;57.50
360;DHT22;168;48.872;9.226;2023-02-08T13:42:33;6.70;57.40
360;DHT22;168;48.872;9.226;2023-02-08T13:45:05;6.70;57.40
360;DHT22;168;48.872;9.226;2023-02-08T13:47:40;6.70;58.20
360;DHT22;168;48.872;9.226;2023-02-08T13:50:40;6.70;57.90
360;DHT22;168;48.872;9.226;2023-02-08T13:53:08;6.70;57.60
360;DHT22;168;48.872;9.226;2023-02-08T13:55:50;6.70;57.60
360;DHT22;168;48.872;9.226;2023-02-08T13:58:37;6.60;58.00
360;DHT22;168;48.872;9.226;2023-02-08T14:01:24;6.50;58.00
360;DHT22;168;48.872;9.226;2023-02-08T14:04:22;6.50;58.00
360;DHT22;168;48.872;9.226;2023-02-08T14:06:55;6.40;58.40
360;DHT22;168;48.872;9.226;2023-02-08T14:09:27;6.50;58.90
360;DHT22;168;48.872;9.226;2023-02-08T14:12:00;6.50;58.80
360;DHT22;168;48.872;9.226;2023-02-08T14:14:30;6.40;59.30
360;DHT22;168;48.872;9.226;2023-02-08T14:17:19;6.50;59.20
360;DHT22;168;48.872;9.226;2023-02-08T14:19:55;6.40;59.20
360;DHT22;168;48.872;9.226;2023-02-08T14:22:25;6.40;59.40
360;DHT22;168;48.872;9.226;2023-02-08T14:25:01;6.40;59.20
360;DHT22;168;48.872;9.226;2023-02-08T14:27:34;6.30;59.80
360;DHT22;168;48.872;9.226;2023-02-08T14:30:05;6.30;60.20
360;DHT22;168;48.872;9.226;2023-02-08T14:32:36;6.20;60.70
360;DHT22;168;48.872;9.226;2023-02-08T14:35:07;6.20;60.60
360;DHT22;168;48.872;9.226;2023-02-08T14:37:35;6.20;60.20
360;DHT22;168;48.872;9.226;2023-02-08T14:43:29;6.10;61.60
360;DHT22;168;48.872;9.226;2023-02-08T14:46:40;6.00;61.70
360;DHT22;168;48.872;9.226;2023-02-08T14:48:59;6.10;61.30
360;DHT22;168;48.872;9.226;2023-02-08T14:51:30;6.00;61.80
360;DHT22;168;48.872;9.226;2023-02-08T14:54:05;6.10;61.40
360;DHT22;168;48.872;9.226;2023-02-08T14:56:49;6.00;61.30
360;DHT22;168;48.872;9.226;2023-02-08T14:59:21;6.00;61.50
360;DHT22;168;48.872;9.226;2023-02-08T15:01:53;5.90;61.30
360;DHT22;168;48.872;9.226;2023-02-08T15:04:25;5.90;61.40
360;DHT22;168;48.872;9.226;2023-02-08T15:07:15;5.90;61.90
360;DHT22;168;48.872;9.226;2023-02-08T15:09:44;5.90;61.10
360;DHT22;168;48.872;9.226;2023-02-08T15:12:16;5.80;60.90
360;DHT22;168;48.872;9.226;2023-02-08T15:14:46;5.80;61.00
360;DHT22;168;48.872;9.226;2023-02-08T15:17:20;5.70;61.20
360;DHT22;168;48.872;9.226;2023-02-08T15:19:49;5.70;62.10
360;DHT22;168;48.872;9.226;2023-02-08T15:22:28;5.60;62.50
360;DHT22;168;48.872;9.226;2023-02-08T15:24:59;5.60;63.00
360;DHT22;168;48.872;9.226;2023-02-08T15:27:28;5.60;63.10
360;DHT22;168;48.872;9.226;2023-02-08T15:29:56;5.60;62.10
360;DHT22;168;48.872;9.226;2023-02-08T15:32:25;5.60;63.20
360;DHT22;168;48.872;9.226;2023-02-08T15:34:57;5.50;62.80
360;DHT22;168;48.872;9.226;2023-02-08T15:37:25;5.50;62.50
360;DHT22;168;48.872;9.226;2023-02-08T15:39:55;5.40;63.20
360;DHT22;168;48.872;9.226;2023-02-08T15:42:24;5.40;62.50
360;DHT22;168;48.872;9.226;2023-02-08T15:44:54;5.40;62.80
360;DHT22;168;48.872;9.226;2023-02-08T15:47:26;5.30;63.00
360;DHT22;168;48.872;9.226;2023-02-08T15:49:57;5.30;62.90
360;DHT22;168;48.872;9.226;2023-02-08T15:52:28;5.20;62.90
360;DHT22;168;48.872;9.226;2023-02-08T15:54:56;5.20;63.30
360;DHT22;168;48.872;9.226;2023-02-08T15:57:32;5.20;63.40
360;DHT22;168;48.872;9.226;2023-02-08T16:00:02;5.10;63.00
360;DHT22;168;48.872;9.226;2023-02-08T16:02:33;5.00;63.10
360;DHT22;168;48.872;9.226;2023-02-08T16:05:11;5.00;63.00
360;DHT22;168;48.872;9.226;2023-02-08T16:07:44;4.80;63.40
360;DHT22;168;48.872;9.226;2023-02-08T16:10:22;4.70;64.10
360;DHT22;168;48.872;9.226;2023-02-08T16:12:50;4.50;64.60
360;DHT22;168;48.872;9.226;2023-02-08T16:15:36;4.40;64.60
360;DHT22;168;48.872;9.226;2023-02-08T16:18:04;4.40;65.10
360;DHT22;168;48.872;9.226;2023-02-08T16:20:34;4.20;65.50
360;DHT22;168;48.872;9.226;2023-02-08T16:23:17;4.10;65.60
360;DHT22;168;48.872;9.226;2023-02-08T16:25:48;4.00;65.80
360;DHT22;168;48.872;9.226;2023-02-08T16:28:24;3.90;66.20
360;DHT22;168;48.872;9.226;2023-02-08T16:30:52;3.90;66.40
360;DHT22;168;48.872;9.226;2023-02-08T16:33:20;3.80;67.00
360;DHT22;168;48.872;9.226;2023-02-08T16:35:49;3.70;67.60
360;DHT22;168;48.872;9.226;2023-02-08T16:38:19;3.60;68.70
360;DHT22;168;48.872;9.226;2023-02-08T16:40:49;3.50;69.50
360;DHT22;168;48.872;9.226;2023-02-08T16:43:20;3.30;70.60
360;DHT22;168;48.872;9.226;2023-02-08T16:46:19;3.30;70.70
360;DHT22;168;48.872;9.226;2023-02-08T16:48:49;3.30;70.30
360;DHT22;168;48.872;9.226;2023-02-08T16:51:20;3.20;70.50
360;DHT22;168;48.872;9.226;2023-02-08T16:53:49;3.10;71.10
360;DHT22;168;48.872;9.226;2023-02-08T16:56:17;3.10;71.70
360;DHT22;168;48.872;9.226;2023-02-08T16:58:45;2.90;72.40
360;DHT22;168;48.872;9.226;2023-02-08T17:01:13;2.90;72.60
360;DHT22;168;48.872;9.226;2023-02-08T17:03:40;2.70;73.30
360;DHT22;168;48.872;9.226;2023-02-08T17:06:19;2.70;73.80
360;DHT22;168;48.872;9.226;2023-02-08T17:08:47;2.60;74.30
360;DHT22;168;48.872;9.226;2023-02-08T17:11:14;2.60;75.00
360;DHT22;168;48.872;9.226;2023-02-08T17:13:42;2.50;75.20
360;DHT22;168;48.872;9.226;2023-02-08T17:16:15;2.50;74.90
360;DHT22;168;48.872;9.226;2023-02-08T17:18:44;2.50;74.80
360;DHT22;168;48.872;9.226;2023-02-08T17:21:11;2.40;75.30
360;DHT22;168;48.872;9.226;2023-02-08T17:23:41;2.40;75.30
360;DHT22;168;48.872;9.226;2023-02-08T17:26:13;2.40;75.20
360;DHT22;168;48.872;9.226;2023-02-08T17:28:41;2.30;75.70
360;DHT22;168;48.872;9.226;2023-02-08T17:31:11;2.30;76.00